Time;durP1;ratioP1;P1;durP2;ratioP2;P2;SDS_P1;SDS_P2;PMS_P1;PMS_P2;Temp;Humidity;BMP_temperature;BMP_pressure;BME280_temperature;BME280_humidity;BME280_pressure;Samples;Min_cycle;Max_cycle;Signal;HPM_P1;HPM_P2
2023/09/14 00:00:30;;;;;;;3.53;0.85;;;14.10;99.90;;;;;;4908825;29;20757;-70
2023/09/14 00:02:59;;;;;;;3.33;0.77;;;14.00;99.90;;;;;;4910641;29;20044;-69
2023/09/14 00:05:26;;;;;;;4.07;1.65;;;14.00;99.90;;;;;;4908636;29;20621;-70
2023/09/14 00:07:53;;;;;;;1.65;0.70;;;13.90;99.90;;;;;;4908602;29;20051;-70
2023/09/14 00:10:20;;;;;;;3.80;0.88;;;14.00;99.90;;;;;;4909373;29;20040;-69
2023/09/14 00:12:47;;;;;;;1.55;0.60;;;13.90;99.90;;;;;;4910540;29;20059;-71
2023/09/14 00:15:14;;;;;;;1.55;0.60;;;14.00;99.90;;;;;;4907481;29;20098;-70
2023/09/14 00:17:41;;;;;;;2.22;1.00;;;14.00;99.90;;;;;;4911672;29;20044;-69
2023/09/14 00:20:09;;;;;;;1.63;1.00;;;14.00;99.90;;;;;;4907049;29;20128;-70
2023/09/14 00:22:37;;;;;;;1.20;0.75;;;14.00;99.90;;;;;;4909217;29;20055;-70
2023/09/14 00:25:04;;;;;;;2.83;1.85;;;14.00;99.90;;;;;;4908998;29;20051;-70
2023/09/14 00:27:31;;;;;;;3.08;1.00;;;14.00;99.90;;;;;;4911326;29;20044;-69
2023/09/14 00:29:58;;;;;;;1.90;1.00;;;14.00;99.90;;;;;;4916723;29;20511;-70
2023/09/14 00:32:25;;;;;;;3.33;1.02;;;14.10;99.90;;;;;;4908504;29;20063;-68
2023/09/14 00:34:53;;;;;;;3.20;1.08;;;14.10;99.90;;;;;;4903509;29;20052;-71
2023/09/14 00:37:20;;;;;;;0.70;0.50;;;14.20;99.90;;;;;;4909101;29;20040;-71
2023/09/14 00:39:47;;;;;;;1.75;0.80;;;14.20;99.90;;;;;;4915104;29;20064;-71
2023/09/14 00:42:14;;;;;;;1.38;0.63;;;14.20;99.90;;;;;;4892951;29;20526;-68
2023/09/14 00:44:41;;;;;;;2.78;1.08;;;14.20;99.90;;;;;;4911377;29;20048;-72
2023/09/14 00:47:08;;;;;;;0.80;0.63;;;14.20;99.90;;;;;;4908715;29;20055;-69
2023/09/14 00:49:35;;;;;;;2.72;1.05;;;14.20;99.90;;;;;;4906883;29;20052;-69
2023/09/14 00:52:04;;;;;;;3.90;1.17;;;14.20;99.90;;;;;;4900289;29;20139;-69
2023/09/14 00:54:31;;;;;;;2.30;0.60;;;14.20;99.90;;;;;;4909785;29;20087;-70
2023/09/14 00:56:58;;;;;;;0.70;0.40;;;14.20;99.90;;;;;;4909555;29;20058;-70
2023/09/14 00:59:26;;;;;;;4.07;0.85;;;14.20;99.90;;;;;;4920822;29;20087;-69
2023/09/14 01:01:54;;;;;;;3.33;0.90;;;14.20;99.90;;;;;;4909405;29;20075;-71
2023/09/14 01:04:21;;;;;;;1.65;0.60;;;14.10;99.90;;;;;;4908989;29;20549;-70
2023/09/14 01:06:49;;;;;;;1.55;0.80;;;14.10;99.90;;;;;;4904493;29;20059;-69
2023/09/14 01:09:16;;;;;;;2.45;0.45;;;14.00;99.90;;;;;;4909188;29;20067;-69
2023/09/14 01:11:44;;;;;;;1.75;0.70;;;14.00;99.90;;;;;;4915173;29;20427;-68
2023/09/14 01:14:26;;;;;;;1.27;0.70;;;14.00;99.90;;;;;;4910316;29;20123;-72
2023/09/14 01:17:01;;;;;;;1.77;1.23;;;14.00;99.90;;;;;;4892922;29;20143;-69
2023/09/14 01:19:43;;;;;;;4.82;1.27;;;14.00;99.90;;;;;;4924411;29;20056;-68
2023/09/14 01:22:29;;;;;;;2.28;0.65;;;14.00;99.90;;;;;;4891345;29;20048;-70
2023/09/14 01:25:25;;;;;;;1.23;0.75;;;14.00;99.90;;;;;;4895541;29;20151;-68
2023/09/14 01:27:52;;;;;;;2.22;1.25;;;14.00;99.90;;;;;;4909895;29;20056;-67
2023/09/14 01:30:19;;;;;;;4.00;0.70;;;13.90;99.90;;;;;;4904041;29;20166;-69
2023/09/14 01:32:46;;;;;;;0.82;0.65;;;13.90;99.90;;;;;;4909427;29;20127;-68
2023/09/14 01:35:14;;;;;;;3.72;0.70;;;13.90;99.90;;;;;;4909841;29;20157;-68
2023/09/14 01:37:41;;;;;;;1.20;0.57;;;13.90;99.90;;;;;;4885935;29;20064;-68
2023/09/14 01:40:09;;;;;;;2.75;0.73;;;13.90;99.90;;;;;;4901901;29;20214;-68
2023/09/14 01:42:39;;;;;;;1.27;0.88;;;13.90;99.90;;;;;;4906577;29;20056;-68
2023/09/14 01:45:08;;;;;;;2.63;0.63;;;13.90;99.90;;;;;;4890891;29;20418;-69
2023/09/14 01:47:35;;;;;;;3.05;1.10;;;13.80;99.90;;;;;;4909841;29;20044;-70
2023/09/14 01:50:02;;;;;;;2.05;0.95;;;13.80;99.90;;;;;;4908112;29;20561;-69
2023/09/14 01:52:29;;;;;;;3.00;0.70;;;13.70;99.90;;;;;;4905184;29;20501;-68
2023/09/14 01:54:56;;;;;;;1.50;0.73;;;13.70;99.90;;;;;;4889362;29;20083;-68
2023/09/14 01:57:24;;;;;;;1.02;0.70;;;13.60;99.90;;;;;;4907654;29;20131;-67
2023/09/14 01:59:51;;;;;;;2.35;0.57;;;13.60;99.90;;;;;;4917266;29;20043;-67
2023/09/14 02:02:18;;;;;;;2.92;1.00;;;13.60;99.90;;;;;;4906209;29;20067;-69
2023/09/14 02:04:47;;;;;;;1.90;0.80;;;13.50;99.90;;;;;;4908134;29;20051;-70
2023/09/14 02:07:14;;;;;;;2.50;1.15;;;13.50;99.90;;;;;;4910973;29;20776;-69
2023/09/14 02:09:41;;;;;;;1.05;0.40;;;13.50;99.90;;;;;;4913115;29;20197;-70
2023/09/14 02:12:08;;;;;;;1.42;1.08;;;13.50;99.90;;;;;;4900743;29;20143;-70
2023/09/14 02:14:35;;;;;;;9.65;0.95;;;13.50;99.90;;;;;;4895701;29;20450;-68
2023/09/14 02:17:02;;;;;;;1.98;0.40;;;13.50;99.90;;;;;;4911384;29;20055;-73
2023/09/14 02:19:29;;;;;;;5.03;0.50;;;13.40;99.90;;;;;;4906655;29;20056;-67
2023/09/14 02:21:56;;;;;;;0.50;0.50;;;13.40;99.90;;;;;;4888296;29;20051;-70
2023/09/14 02:24:23;;;;;;;2.70;0.70;;;13.40;99.90;;;;;;4911532;29;20058;-69
2023/09/14 02:26:52;;;;;;;1.25;0.88;;;13.40;99.90;;;;;;4909881;29;20410;-70
2023/09/14 02:29:20;;;;;;;1.55;0.60;;;13.30;99.90;;;;;;4918579;29;20396;-69
2023/09/14 02:31:47;;;;;;;1.52;0.30;;;13.30;99.90;;;;;;4909221;29;20459;-70
2023/09/14 02:34:14;;;;;;;0.80;0.57;;;13.30;99.90;;;;;;4888117;29;20744;-69
2023/09/14 02:36:41;;;;;;;2.03;0.82;;;13.30;99.90;;;;;;4908238;29;20051;-69
2023/09/14 02:39:08;;;;;;;0.90;0.45;;;13.30;99.90;;;;;;4906333;29;20072;-68
2023/09/14 02:41:34;;;;;;;1.10;0.57;;;13.30;99.90;;;;;;4912419;29;20083;-70
2023/09/14 02:44:01;;;;;;;2.10;0.65;;;13.30;99.90;;;;;;4906176;29;20447;-68
2023/09/14 02:46:28;;;;;;;0.47;0.35;;;13.30;99.90;;;;;;4909851;29;20088;-68
2023/09/14 02:48:55;;;;;;;1.42;0.68;;;13.30;99.90;;;;;;4904853;29;20490;-69
2023/09/14 02:51:22;;;;;;;0.45;0.28;;;13.30;99.90;;;;;;4910182;29;20056;-70
2023/09/14 02:53:50;;;;;;;1.02;0.57;;;13.20;99.90;;;;;;4909621;29;20056;-71
2023/09/14 02:56:17;;;;;;;1.42;0.82;;;13.30;99.90;;;;;;4913741;29;20521;-68
2023/09/14 02:58:44;;;;;;;1.02;0.40;;;13.30;99.90;;;;;;4894727;29;20467;-69
2023/09/14 03:01:11;;;;;;;1.45;0.60;;;13.20;99.90;;;;;;4892621;29;20048;-69
2023/09/14 03:03:39;;;;;;;0.80;0.40;;;13.20;99.90;;;;;;4905154;29;20135;-68
2023/09/14 03:06:07;;;;;;;3.45;1.23;;;13.20;99.90;;;;;;4911437;29;20044;-68
2023/09/14 03:08:34;;;;;;;2.05;1.17;;;13.20;99.90;;;;;;4907204;29;20068;-70
2023/09/14 03:11:01;;;;;;;6.40;1.38;;;13.20;99.90;;;;;;4906854;29;20063;-70
2023/09/14 03:13:28;;;;;;;3.58;0.60;;;13.20;99.90;;;;;;4909619;29;20059;-70
2023/09/14 03:15:56;;;;;;;2.05;0.70;;;13.20;99.90;;;;;;4910414;29;20052;-71
2023/09/14 03:18:24;;;;;;;0.75;0.40;;;13.20;99.90;;;;;;4909453;29;20052;-68
2023/09/14 03:20:52;;;;;;;3.13;0.52;;;13.20;99.90;;;;;;4909529;29;20052;-69
2023/09/14 03:23:20;;;;;;;0.68;0.32;;;13.20;99.90;;;;;;4922751;29;20052;-68
2023/09/14 03:25:49;;;;;;;2.75;0.93;;;13.20;99.90;;;;;;4908984;29;20127;-68
2023/09/14 03:28:17;;;;;;;1.45;0.65;;;13.20;99.90;;;;;;4909860;29;20059;-69
2023/09/14 03:30:46;;;;;;;1.40;0.47;;;13.10;99.90;;;;;;4918894;29;20052;-68
2023/09/14 03:33:13;;;;;;;5.15;1.38;;;13.10;99.90;;;;;;4890255;29;20752;-68
2023/09/14 03:35:41;;;;;;;0.85;0.50;;;13.10;99.90;;;;;;4908105;29;20558;-68
2023/09/14 03:38:08;;;;;;;1.48;0.50;;;13.10;99.90;;;;;;4908265;29;20070;-68
2023/09/14 03:40:35;;;;;;;2.20;0.45;;;13.10;99.90;;;;;;4906547;29;20145;-68
2023/09/14 03:43:02;;;;;;;2.08;0.77;;;13.00;99.90;;;;;;4908291;29;20142;-69
2023/09/14 03:45:29;;;;;;;3.70;1.40;;;13.00;99.90;;;;;;4907179;29;20079;-68
2023/09/14 03:47:57;;;;;;;0.60;0.43;;;13.00;99.90;;;;;;4910303;29;20491;-70
2023/09/14 03:50:23;;;;;;;1.85;0.40;;;13.10;99.90;;;;;;4906343;29;20079;-67
2023/09/14 03:52:50;;;;;;;2.63;0.80;;;13.00;99.90;;;;;;4908297;29;20392;-69
2023/09/14 03:55:17;;;;;;;1.48;0.80;;;13.00;99.90;;;;;;4894240;29;20048;-69
2023/09/14 03:57:47;;;;;;;3.50;0.70;;;13.00;99.90;;;;;;4909567;29;20135;-68
2023/09/14 04:00:16;;;;;;;2.03;0.40;;;13.00;99.90;;;;;;4922617;29;20074;-68
2023/09/14 04:02:43;;;;;;;1.48;0.60;;;13.00;99.90;;;;;;4909952;29;20052;-68
2023/09/14 04:05:15;;;;;;;4.60;0.70;;;12.90;99.90;;;;;;4891075;29;20044;-69
2023/09/14 04:07:46;;;;;;;1.33;0.90;;;12.90;99.90;;;;;;4908193;29;20812;-69
2023/09/14 04:10:13;;;;;;;2.03;0.93;;;12.90;99.90;;;;;;4907562;29;20395;-69
2023/09/14 04:12:43;;;;;;;2.97;0.98;;;12.90;99.90;;;;;;4910471;29;20426;-70
2023/09/14 04:15:10;;;;;;;1.70;0.80;;;12.80;99.90;;;;;;4917150;29;20462;-68
2023/09/14 04:17:37;;;;;;;1.98;0.30;;;12.90;99.90;;;;;;4904842;29;20076;-68
2023/09/14 04:20:11;;;;;;;4.22;1.00;;;12.90;99.90;;;;;;4897388;29;20048;-69
2023/09/14 04:22:40;;;;;;;4.60;0.50;;;12.80;99.90;;;;;;4919173;29;20088;-68
2023/09/14 04:25:07;;;;;;;0.70;0.45;;;12.80;99.90;;;;;;4898181;29;20084;-68
2023/09/14 04:27:35;;;;;;;1.85;0.80;;;12.80;99.90;;;;;;4889334;29;20048;-70
2023/09/14 04:30:03;;;;;;;3.13;0.70;;;12.80;99.90;;;;;;4892059;29;20052;-67
2023/09/14 04:32:30;;;;;;;2.42;0.40;;;12.80;99.90;;;;;;4893418;29;20118;-67
2023/09/14 04:34:57;;;;;;;1.98;0.90;;;12.80;99.90;;;;;;4908718;29;20815;-67
2023/09/14 04:37:24;;;;;;;2.88;0.90;;;12.90;99.90;;;;;;4907383;29;20059;-68
2023/09/14 04:39:51;;;;;;;0.93;0.68;;;12.90;99.90;;;;;;4907936;29;20044;-67
2023/09/14 04:42:18;;;;;;;0.43;0.30;;;12.90;99.90;;;;;;4906546;29;20122;-67
2023/09/14 04:44:49;;;;;;;1.08;0.50;;;13.00;99.90;;;;;;4908351;29;20506;-72
2023/09/14 04:47:18;;;;;;;1.40;0.82;;;13.00;99.90;;;;;;4908328;29;20059;-69
2023/09/14 04:49:44;;;;;;;2.15;0.50;;;13.10;99.90;;;;;;4908478;29;20095;-69
2023/09/14 04:52:12;;;;;;;0.65;0.20;;;13.20;99.90;;;;;;4908186;29;20503;-68
2023/09/14 04:54:39;;;;;;;2.25;0.50;;;13.20;99.90;;;;;;4895223;29;20138;-71
2023/09/14 04:57:07;;;;;;;0.65;0.60;;;13.30;99.90;;;;;;4907453;29;20052;-68
2023/09/14 04:59:35;;;;;;;1.13;0.60;;;13.30;99.90;;;;;;4891801;29;20150;-68
2023/09/14 05:02:02;;;;;;;6.25;0.75;;;13.40;99.90;;;;;;4907996;29;20554;-68
2023/09/14 05:04:29;;;;;;;3.25;1.08;;;13.40;99.90;;;;;;4887811;29;20511;-68
2023/09/14 05:06:57;;;;;;;1.13;0.82;;;13.50;99.90;;;;;;4885766;29;20113;-67
2023/09/14 05:09:24;;;;;;;1.42;0.55;;;13.50;99.90;;;;;;4906985;29;20127;-67
2023/09/14 05:11:51;;;;;;;3.38;0.50;;;13.50;99.90;;;;;;4903858;29;20052;-72
2023/09/14 05:14:19;;;;;;;2.80;0.50;;;13.60;99.90;;;;;;4900165;29;20052;-71
2023/09/14 05:16:46;;;;;;;2.78;1.00;;;13.60;99.90;;;;;;4908975;29;20056;-68
2023/09/14 05:19:12;;;;;;;2.92;0.85;;;13.60;99.90;;;;;;4915522;29;20056;-70
2023/09/14 05:21:40;;;;;;;1.85;0.60;;;13.60;99.90;;;;;;4906865;29;20060;-68
2023/09/14 05:24:07;;;;;;;1.98;0.50;;;13.50;99.90;;;;;;4893825;29;20055;-68
2023/09/14 05:26:34;;;;;;;2.00;0.82;;;13.60;99.90;;;;;;4909348;29;20052;-67
2023/09/14 05:29:01;;;;;;;0.52;0.40;;;13.60;99.90;;;;;;4908071;29;20048;-68
2023/09/14 05:31:28;;;;;;;0.75;0.50;;;13.60;99.90;;;;;;4892321;29;20060;-68
2023/09/14 05:33:55;;;;;;;1.27;0.50;;;13.60;99.90;;;;;;4889991;29;20052;-69
2023/09/14 05:36:22;;;;;;;1.70;0.50;;;13.70;99.90;;;;;;4913228;29;20087;-68
2023/09/14 05:38:49;;;;;;;2.47;0.35;;;13.70;99.90;;;;;;4911949;29;20223;-69
2023/09/14 05:41:16;;;;;;;0.50;0.38;;;13.70;99.90;;;;;;4913120;29;20431;-70
2023/09/14 05:43:43;;;;;;;1.55;0.52;;;13.70;99.90;;;;;;4913410;29;20048;-68
2023/09/14 05:46:10;;;;;;;2.08;0.40;;;13.70;99.90;;;;;;4910393;29;20585;-67
2023/09/14 05:48:37;;;;;;;3.13;0.73;;;13.70;99.90;;;;;;4901158;29;20100;-67
2023/09/14 05:51:05;;;;;;;3.40;0.50;;;13.70;99.90;;;;;;4913107;29;20040;-67
2023/09/14 05:53:32;;;;;;;4.15;1.70;;;13.80;99.90;;;;;;4887036;29;20471;-67
2023/09/14 05:55:59;;;;;;;2.47;0.35;;;13.70;99.90;;;;;;4910625;29;20505;-69
2023/09/14 05:58:26;;;;;;;0.38;0.20;;;13.70;99.90;;;;;;4908083;29;20052;-67
2023/09/14 06:00:54;;;;;;;1.00;0.45;;;13.70;99.90;;;;;;4893965;29;20621;-68
2023/09/14 06:03:21;;;;;;;1.25;0.50;;;13.70;99.90;;;;;;4889769;29;20426;-68
2023/09/14 06:05:48;;;;;;;2.05;0.60;;;13.70;99.90;;;;;;4909570;29;20052;-70
2023/09/14 06:08:15;;;;;;;1.63;0.30;;;13.70;99.90;;;;;;4910470;29;20044;-68
2023/09/14 06:10:42;;;;;;;1.63;0.52;;;13.70;99.90;;;;;;4905789;29;20056;-68
2023/09/14 06:13:08;;;;;;;1.10;0.65;;;13.70;99.90;;;;;;4911354;29;20048;-68
2023/09/14 06:15:35;;;;;;;0.98;0.40;;;13.70;99.90;;;;;;4908084;29;20134;-67
2023/09/14 06:18:03;;;;;;;0.40;0.17;;;13.80;99.90;;;;;;4912684;29;20104;-69
2023/09/14 06:20:30;;;;;;;1.85;0.43;;;13.80;99.90;;;;;;4907512;29;20127;-67
2023/09/14 06:22:57;;;;;;;1.13;0.20;;;13.80;99.90;;;;;;4909550;29;20048;-67
2023/09/14 06:25:24;;;;;;;0.52;0.20;;;13.80;99.90;;;;;;4909432;29;20163;-68
2023/09/14 06:27:51;;;;;;;1.38;0.30;;;13.80;99.90;;;;;;4911213;29;20050;-68
2023/09/14 06:30:17;;;;;;;0.40;0.17;;;13.80;99.90;;;;;;4909133;29;20063;-68
2023/09/14 06:32:44;;;;;;;0.75;0.30;;;13.90;99.90;;;;;;4910985;29;20155;-67
2023/09/14 06:35:11;;;;;;;1.17;0.40;;;13.90;99.90;;;;;;4909263;29;20111;-70
2023/09/14 06:37:38;;;;;;;0.93;0.20;;;13.90;99.90;;;;;;4911985;29;20492;-67
2023/09/14 06:40:07;;;;;;;1.48;0.20;;;14.00;99.90;;;;;;4908644;29;20044;-66
2023/09/14 06:42:34;;;;;;;0.50;0.32;;;14.00;99.90;;;;;;4909810;29;20048;-66
2023/09/14 06:45:02;;;;;;;0.30;0.10;;;14.00;99.90;;;;;;4912534;29;20047;-68
2023/09/14 06:47:29;;;;;;;0.45;0.45;;;14.00;99.90;;;;;;4910735;29;20051;-67
2023/09/14 06:49:56;;;;;;;1.38;0.30;;;14.00;99.90;;;;;;4908192;29;20048;-67
2023/09/14 06:52:23;;;;;;;0.75;0.20;;;14.10;99.90;;;;;;4908464;29;20056;-69
2023/09/14 06:54:50;;;;;;;1.13;0.20;;;14.10;99.90;;;;;;4910715;29;20770;-69
2023/09/14 06:57:16;;;;;;;0.73;0.28;;;14.20;99.90;;;;;;4910215;29;20070;-68
2023/09/14 06:59:43;;;;;;;2.45;0.68;;;14.20;99.90;;;;;;4908569;29;20037;-67
2023/09/14 07:02:10;;;;;;;0.95;0.30;;;14.20;99.90;;;;;;4909926;29;20111;-68
2023/09/14 07:04:38;;;;;;;0.65;0.20;;;14.20;99.90;;;;;;4910543;29;20472;-69
2023/09/14 07:07:05;;;;;;;0.30;0.20;;;14.20;99.90;;;;;;4909590;29;20134;-72
2023/09/14 07:09:32;;;;;;;0.80;0.43;;;14.20;99.90;;;;;;4909537;29;20056;-67
2023/09/14 07:11:59;;;;;;;0.50;0.30;;;14.20;99.90;;;;;;4910486;29;20470;-66
2023/09/14 07:14:26;;;;;;;7.35;0.40;;;14.20;99.90;;;;;;4911618;29;20059;-68
2023/09/14 07:16:53;;;;;;;0.88;0.40;;;14.20;99.90;;;;;;4910435;29;20051;-67
2023/09/14 07:19:26;;;;;;;6.57;0.77;;;14.20;99.90;;;;;;4908304;29;20067;-68
2023/09/14 07:21:54;;;;;;;1.40;0.40;;;14.20;99.90;;;;;;4906179;29;20044;-71
2023/09/14 07:24:22;;;;;;;3.00;0.65;;;14.20;99.90;;;;;;4907075;29;20676;-70
2023/09/14 07:26:48;;;;;;;0.65;0.10;;;14.30;99.90;;;;;;4910127;29;20043;-66
2023/09/14 07:29:15;;;;;;;2.00;0.10;;;14.30;99.90;;;;;;4910936;29;20096;-67
2023/09/14 07:31:42;;;;;;;1.38;0.28;;;14.40;99.90;;;;;;4907412;29;20495;-69
2023/09/14 07:34:09;;;;;;;4.30;0.45;;;14.30;99.90;;;;;;4910798;29;20059;-68
2023/09/14 07:36:36;;;;;;;0.52;0.28;;;14.30;99.90;;;;;;4909126;29;20270;-68
2023/09/14 07:39:03;;;;;;;2.00;0.55;;;14.30;99.90;;;;;;4893634;29;20048;-68
2023/09/14 07:41:30;;;;;;;2.08;0.38;;;14.30;99.90;;;;;;4903219;29;20055;-70
2023/09/14 07:43:57;;;;;;;3.42;0.30;;;14.30;99.90;;;;;;4910061;29;20495;-69
2023/09/14 07:46:24;;;;;;;0.70;0.43;;;14.30;99.90;;;;;;4909088;29;20092;-68
2023/09/14 07:48:51;;;;;;;2.42;0.80;;;14.20;99.90;;;;;;4894040;29;20047;-72
2023/09/14 07:51:18;;;;;;;0.45;0.30;;;14.10;99.90;;;;;;4908596;29;20075;-69
2023/09/14 07:53:45;;;;;;;2.58;0.20;;;14.10;99.90;;;;;;4911152;29;20048;-68
2023/09/14 07:56:13;;;;;;;2.38;0.77;;;14.10;99.90;;;;;;4908228;29;20072;-67
2023/09/14 07:58:40;;;;;;;7.30;1.25;;;14.20;99.90;;;;;;4909702;29;20044;-68
2023/09/14 08:01:07;;;;;;;1.70;0.20;;;14.20;99.90;;;;;;4908510;29;20319;-66
2023/09/14 08:03:33;;;;;;;2.40;0.52;;;14.20;99.90;;;;;;4909907;29;20048;-68
2023/09/14 08:06:00;;;;;;;0.50;0.30;;;14.20;99.90;;;;;;4907784;29;20078;-69
2023/09/14 08:08:27;;;;;;;0.22;0.10;;;14.30;99.90;;;;;;4907595;29;20101;-67
2023/09/14 08:10:55;;;;;;;2.53;0.40;;;14.30;99.90;;;;;;4910311;29;20123;-68
2023/09/14 08:13:23;;;;;;;2.47;0.20;;;14.20;99.90;;;;;;4910414;29;20055;-67
2023/09/14 08:15:50;;;;;;;1.42;0.30;;;14.30;99.90;;;;;;4909164;29;20050;-69
2023/09/14 08:18:18;;;;;;;0.95;0.30;;;14.40;99.90;;;;;;4909918;29;20782;-66
2023/09/14 08:20:48;;;;;;;0.63;0.38;;;14.50;99.90;;;;;;4909194;29;20056;-66
2023/09/14 08:23:15;;;;;;;1.60;0.30;;;14.40;99.90;;;;;;4907769;29;20159;-67
2023/09/14 08:25:46;;;;;;;2.13;0.50;;;14.50;99.90;;;;;;4908835;29;20052;-67
2023/09/14 08:28:15;;;;;;;0.80;0.75;;;14.50;99.90;;;;;;4909134;29;20044;-71
2023/09/14 08:30:43;;;;;;;0.65;0.30;;;14.60;99.90;;;;;;4908789;29;20160;-66
2023/09/14 08:33:13;;;;;;;1.70;0.55;;;14.50;99.90;;;;;;4908760;29;20123;-67
2023/09/14 08:35:44;;;;;;;1.05;0.30;;;14.60;99.90;;;;;;4909359;29;20135;-69
2023/09/14 08:38:11;;;;;;;2.25;0.47;;;14.60;99.90;;;;;;4908491;29;20162;-67
2023/09/14 08:40:41;;;;;;;1.70;0.38;;;14.60;99.90;;;;;;4907626;29;20044;-66
2023/09/14 08:43:12;;;;;;;1.80;0.63;;;14.60;99.90;;;;;;4908748;29;20048;-69
2023/09/14 08:45:39;;;;;;;1.92;0.32;;;14.60;99.90;;;;;;4907575;29;20060;-67
2023/09/14 08:48:08;;;;;;;1.00;0.40;;;14.60;99.90;;;;;;4905010;29;20053;-69
2023/09/14 08:50:39;;;;;;;2.53;0.65;;;14.70;99.90;;;;;;4906799;29;20056;-67
2023/09/14 08:53:06;;;;;;;1.98;0.40;;;14.70;99.90;;;;;;4908096;29;20051;-67
2023/09/14 08:55:35;;;;;;;0.30;0.30;;;14.70;99.90;;;;;;4906793;29;20494;-71
2023/09/14 08:58:02;;;;;;;1.00;0.57;;;14.70;99.90;;;;;;4909609;29;20039;-69
2023/09/14 09:00:31;;;;;;;3.38;0.38;;;14.70;99.90;;;;;;4907730;29;20082;-68
2023/09/14 09:02:59;;;;;;;0.82;0.32;;;14.70;99.90;;;;;;4902836;29;20143;-67
2023/09/14 09:05:27;;;;;;;1.80;0.60;;;14.80;99.90;;;;;;4904816;29;20063;-67
2023/09/14 09:07:56;;;;;;;0.98;0.45;;;14.80;99.90;;;;;;4907704;29;20051;-68
2023/09/14 09:10:25;;;;;;;2.60;0.32;;;14.80;99.90;;;;;;4907437;29;20143;-70
2023/09/14 09:13:03;;;;;;;0.55;0.20;;;14.90;99.90;;;;;;4913138;29;20044;-70
2023/09/14 09:15:32;;;;;;;1.30;0.32;;;14.90;99.90;;;;;;4912694;29;20538;-68
2023/09/14 09:18:08;;;;;;;0.85;0.20;;;14.90;99.90;;;;;;4912143;29;20142;-72
2023/09/14 09:20:37;;;;;;;1.30;0.20;;;15.00;99.90;;;;;;4913996;29;20054;-68
2023/09/14 09:23:06;;;;;;;1.77;0.50;;;15.10;99.90;;;;;;4912701;29;20150;-69
2023/09/14 09:25:47;;;;;;;0.30;0.30;;;15.20;99.90;;;;;;4913269;29;20062;-68
2023/09/14 09:28:15;;;;;;;1.08;0.93;;;15.30;99.90;;;;;;4907410;29;20046;-70
2023/09/14 09:30:44;;;;;;;0.75;0.32;;;15.30;99.90;;;;;;4908964;29;20115;-69
2023/09/14 09:33:11;;;;;;;0.30;0.20;;;15.30;99.90;;;;;;4910482;29;20128;-68
2023/09/14 09:35:39;;;;;;;1.05;0.28;;;15.30;99.90;;;;;;4907938;29;20524;-68
2023/09/14 09:38:12;;;;;;;0.98;0.40;;;15.20;99.90;;;;;;4909329;29;20154;-70
2023/09/14 09:40:44;;;;;;;0.40;0.25;;;15.10;99.90;;;;;;4908738;29;20123;-70
2023/09/14 09:43:16;;;;;;;0.85;0.25;;;15.20;99.90;;;;;;4910950;29;20664;-67
2023/09/14 09:45:44;;;;;;;2.05;0.43;;;15.20;99.90;;;;;;4903328;29;20058;-70
2023/09/14 09:48:12;;;;;;;0.47;0.20;;;15.20;99.90;;;;;;4906315;29;20052;-71
2023/09/14 09:50:39;;;;;;;2.10;0.60;;;15.30;99.90;;;;;;4907349;29;20052;-69
2023/09/14 09:53:12;;;;;;;1.23;0.20;;;15.40;99.90;;;;;;4905662;29;20040;-69
2023/09/14 09:55:42;;;;;;;2.85;1.05;;;15.40;99.90;;;;;;4906269;29;20052;-69
2023/09/14 09:58:09;;;;;;;0.90;0.43;;;15.40;99.90;;;;;;4910371;29;20071;-70
2023/09/14 10:00:39;;;;;;;0.50;0.50;;;15.50;99.90;;;;;;4907529;29;20044;-68
2023/09/14 10:03:07;;;;;;;2.60;0.45;;;15.50;99.90;;;;;;4904685;29;20542;-69
2023/09/14 10:05:39;;;;;;;2.03;0.10;;;15.60;99.90;;;;;;4909242;29;20052;-67
2023/09/14 10:08:18;;;;;;;1.08;0.20;;;15.50;99.90;;;;;;4916472;29;20048;-68
2023/09/14 10:10:52;;;;;;;0.98;0.28;;;15.50;99.90;;;;;;4885980;29;20072;-68
2023/09/14 10:13:24;;;;;;;0.45;0.30;;;15.50;99.90;;;;;;4886992;29;20049;-69
2023/09/14 10:15:53;;;;;;;0.70;0.28;;;15.50;99.90;;;;;;4889238;29;20568;-71
2023/09/14 10:18:22;;;;;;;0.28;0.13;;;15.60;99.90;;;;;;4889344;29;20141;-67
2023/09/14 10:20:54;;;;;;;1.95;0.70;;;15.60;99.90;;;;;;4888859;29;20044;-68
2023/09/14 10:23:21;;;;;;;2.75;0.47;;;15.70;99.90;;;;;;4888515;29;20519;-70
2023/09/14 10:25:51;;;;;;;0.28;0.22;;;15.80;99.90;;;;;;4892636;29;20506;-70
2023/09/14 10:28:20;;;;;;;1.52;0.30;;;15.80;99.90;;;;;;4890296;29;20051;-67
2023/09/14 10:30:50;;;;;;;0.50;0.10;;;15.90;99.90;;;;;;4893134;29;20417;-68
2023/09/14 10:33:18;;;;;;;1.53;0.40;;;15.80;99.90;;;;;;4889329;29;20052;-68
2023/09/14 10:35:47;;;;;;;1.05;0.32;;;15.70;99.90;;;;;;4892748;29;20455;-69
2023/09/14 10:38:16;;;;;;;3.03;1.05;;;15.80;99.90;;;;;;4891323;29;20170;-68
2023/09/14 10:40:43;;;;;;;3.30;1.45;;;15.70;99.90;;;;;;4892940;29;20127;-69
2023/09/14 10:43:11;;;;;;;1.48;0.10;;;15.70;99.90;;;;;;4890796;29;20108;-67
2023/09/14 10:45:41;;;;;;;0.93;0.35;;;15.70;99.90;;;;;;4892908;29;20051;-67
2023/09/14 10:48:13;;;;;;;1.35;0.10;;;15.70;99.90;;;;;;4894997;29;20063;-67
2023/09/14 10:50:41;;;;;;;1.63;1.02;;;15.80;99.90;;;;;;4889430;29;20498;-68
2023/09/14 10:53:08;;;;;;;2.03;0.52;;;15.80;99.90;;;;;;4891931;29;20041;-66
2023/09/14 10:55:35;;;;;;;0.20;0.20;;;15.80;99.90;;;;;;4890132;29;20184;-68
2023/09/14 10:58:02;;;;;;;0.05;0.05;;;15.80;99.90;;;;;;4873892;29;20088;-67
2023/09/14 11:00:38;;;;;;;1.67;0.20;;;15.90;99.90;;;;;;4888250;29;20539;-67
2023/09/14 11:03:09;;;;;;;1.23;0.20;;;15.90;99.90;;;;;;4887272;29;20119;-68
2023/09/14 11:05:51;;;;;;;1.65;0.20;;;15.90;99.90;;;;;;4890235;29;20055;-66
2023/09/14 11:08:19;;;;;;;;;;;16.00;99.90;;;;;;4892076;29;20060;-67
2023/09/14 11:10:58;;;;;;;1.27;0.30;;;15.90;99.90;;;;;;4910831;29;19929;-71
2023/09/14 11:13:35;;;;;;;0.80;0.20;;;15.90;99.90;;;;;;4907407;29;20048;-68
2023/09/14 11:16:12;;;;;;;0.22;0.20;;;15.80;99.90;;;;;;4912512;29;20052;-70
2023/09/14 11:18:44;;;;;;;0.15;0.10;;;15.70;99.90;;;;;;4908649;29;20052;-68
2023/09/14 11:21:32;;;;;;;0.47;0.00;;;15.80;99.90;;;;;;4910839;29;20044;-69
2023/09/14 11:24:04;;;;;;;0.90;0.20;;;15.60;99.90;;;;;;4905046;29;20155;-67
2023/09/14 11:26:38;;;;;;;0.25;0.20;;;15.70;99.90;;;;;;4909406;29;20048;-70
2023/09/14 11:29:08;;;;;;;2.20;0.38;;;15.60;99.90;;;;;;4906318;29;20044;-70
2023/09/14 11:31:36;;;;;;;0.93;0.28;;;15.60;99.90;;;;;;4909886;29;20098;-73
2023/09/14 11:34:12;;;;;;;0.38;0.30;;;15.70;99.90;;;;;;4903400;29;20048;-73
2023/09/14 11:36:43;;;;;;;0.47;0.25;;;15.50;99.90;;;;;;4918007;29;20138;-68
2023/09/14 11:39:14;;;;;;;1.38;0.57;;;15.40;99.90;;;;;;4909765;29;20100;-68
2023/09/14 11:41:48;;;;;;;3.95;0.52;;;15.50;99.90;;;;;;4908799;29;20060;-68
2023/09/14 11:44:19;;;;;;;2.08;0.25;;;15.50;99.90;;;;;;4907992;29;20052;-70
2023/09/14 11:46:49;;;;;;;0.93;0.10;;;15.50;99.90;;;;;;4908908;29;20126;-67
2023/09/14 11:49:20;;;;;;;0.65;0.43;;;15.50;99.90;;;;;;4906798;29;20523;-67
2023/09/14 11:51:53;;;;;;;0.75;0.20;;;15.70;99.90;;;;;;4908080;29;20059;-69
2023/09/14 11:54:20;;;;;;;3.03;0.20;;;15.80;99.90;;;;;;4908094;29;20605;-67
2023/09/14 11:56:49;;;;;;;2.60;0.65;;;15.80;99.90;;;;;;4909604;29;20507;-68
2023/09/14 11:59:32;;;;;;;0.70;0.17;;;15.90;99.90;;;;;;4909166;29;20052;-67
2023/09/14 12:02:03;;;;;;;3.20;0.20;;;15.80;99.90;;;;;;4910002;29;20111;-67
2023/09/14 12:04:31;;;;;;;0.40;0.20;;;15.80;99.90;;;;;;4909439;29;20052;-67
2023/09/14 12:07:02;;;;;;;0.28;0.13;;;16.00;99.90;;;;;;4906197;29;20062;-69
2023/09/14 12:09:41;;;;;;;0.50;0.10;;;16.00;99.90;;;;;;4909200;29;20063;-67
2023/09/14 12:12:10;;;;;;;7.65;0.98;;;15.80;99.90;;;;;;4907854;29;20071;-67
2023/09/14 12:14:43;;;;;;;5.60;0.40;;;15.80;99.90;;;;;;4907875;29;20621;-68
2023/09/14 12:17:18;;;;;;;0.63;0.40;;;15.80;99.90;;;;;;4908658;29;20055;-68
2023/09/14 12:19:48;;;;;;;1.73;0.50;;;16.00;99.90;;;;;;4904141;29;20171;-69
2023/09/14 12:22:16;;;;;;;0.50;0.30;;;16.20;99.90;;;;;;4908202;29;20036;-70
2023/09/14 12:24:44;;;;;;;0.40;0.20;;;16.10;99.90;;;;;;4908787;29;20053;-72
2023/09/14 12:27:12;;;;;;;0.30;0.20;;;16.10;99.90;;;;;;4909915;29;20048;-67
2023/09/14 12:29:41;;;;;;;0.20;0.20;;;15.90;99.90;;;;;;4909604;29;20426;-68
2023/09/14 12:32:09;;;;;;;1.17;0.10;;;15.90;99.90;;;;;;4906897;29;20048;-73
2023/09/14 12:34:37;;;;;;;0.90;0.20;;;15.90;99.90;;;;;;4904946;29;20131;-71
2023/09/14 12:37:05;;;;;;;0.60;0.30;;;15.90;99.90;;;;;;4908588;29;20044;-66
2023/09/14 12:39:32;;;;;;;3.20;0.20;;;16.00;99.90;;;;;;4910774;29;20099;-67
2023/09/14 12:42:03;;;;;;;1.10;0.25;;;16.00;99.90;;;;;;4908395;29;20048;-69
2023/09/14 12:44:31;;;;;;;1.45;0.40;;;16.00;99.90;;;;;;4908110;29;20239;-67
2023/09/14 12:46:58;;;;;;;0.40;0.15;;;16.10;99.90;;;;;;4908174;29;20474;-68
2023/09/14 12:49:24;;;;;;;0.40;0.30;;;16.00;99.90;;;;;;4905316;29;20111;-69
2023/09/14 12:51:51;;;;;;;0.32;0.25;;;16.00;99.90;;;;;;4908525;29;20044;-67
2023/09/14 12:54:25;;;;;;;0.22;0.10;;;16.20;99.90;;;;;;4907690;29;20051;-67